sensor_id;sensor_type;location;lat;lon;timestamp;P1;durP1;ratioP1;P2;durP2;ratioP2
16832;SDS011;8533;48.426;10.868;2022-09-30T00:01:13;11.83;;;7.77;;
16832;SDS011;8533;48.426;10.868;2022-09-30T00:03:41;11.37;;;7.77;;
16832;SDS011;8533;48.426;10.868;2022-09-30T00:06:08;11.90;;;7.43;;
16832;SDS011;8533;48.426;10.868;2022-09-30T00:08:36;13.40;;;7.87;;
16832;SDS011;8533;48.426;10.868;2022-09-30T00:11:05;13.53;;;7.97;;
16832;SDS011;8533;48.426;10.868;2022-09-30T00:13:35;11.07;;;7.77;;
16832;SDS011;8533;48.426;10.868;2022-09-30T00:16:04;12.57;;;7.47;;
16832;SDS011;8533;48.426;10.868;2022-09-30T00:18:33;13.37;;;8.10;;
16832;SDS011;8533;48.426;10.868;2022-09-30T00:21:01;11.70;;;7.37;;
16832;SDS011;8533;48.426;10.868;2022-09-30T00:23:29;12.07;;;7.67;;
16832;SDS011;8533;48.426;10.868;2022-09-30T00:25:57;13.40;;;7.60;;
16832;SDS011;8533;48.426;10.868;2022-09-30T00:28:27;20.23;;;7.03;;
16832;SDS011;8533;48.426;10.868;2022-09-30T00:30:58;14.33;;;7.63;;
16832;SDS011;8533;48.426;10.868;2022-09-30T00:33:28;12.43;;;6.87;;
16832;SDS011;8533;48.426;10.868;2022-09-30T00:35:55;18.00;;;7.53;;
16832;SDS011;8533;48.426;10.868;2022-09-30T00:38:23;14.17;;;7.27;;
16832;SDS011;8533;48.426;10.868;2022-09-30T00:40:51;11.13;;;7.03;;
16832;SDS011;8533;48.426;10.868;2022-09-30T00:43:37;10.57;;;7.30;;
16832;SDS011;8533;48.426;10.868;2022-09-30T00:46:20;11.83;;;7.37;;
16832;SDS011;8533;48.426;10.868;2022-09-30T00:48:43;14.33;;;7.77;;
16832;SDS011;8533;48.426;10.868;2022-09-30T00:51:14;12.23;;;7.23;;
16832;SDS011;8533;48.426;10.868;2022-09-30T00:53:53;11.60;;;7.67;;
16832;SDS011;8533;48.426;10.868;2022-09-30T00:58:51;12.67;;;6.93;;
16832;SDS011;8533;48.426;10.868;2022-09-30T01:01:21;16.23;;;7.67;;
16832;SDS011;8533;48.426;10.868;2022-09-30T01:06:23;23.93;;;7.03;;
16832;SDS011;8533;48.426;10.868;2022-09-30T01:08:51;12.67;;;6.77;;
16832;SDS011;8533;48.426;10.868;2022-09-30T01:11:20;26.47;;;6.90;;
16832;SDS011;8533;48.426;10.868;2022-09-30T01:13:49;15.83;;;7.10;;
16832;SDS011;8533;48.426;10.868;2022-09-30T01:16:24;25.73;;;6.37;;
16832;SDS011;8533;48.426;10.868;2022-09-30T01:33:25;20.70;;;6.70;;
16832;SDS011;8533;48.426;10.868;2022-09-30T01:36:04;11.60;;;6.70;;
16832;SDS011;8533;48.426;10.868;2022-09-30T01:39:01;29.27;;;7.00;;
16832;SDS011;8533;48.426;10.868;2022-09-30T01:44:17;61.50;;;6.70;;
16832;SDS011;8533;48.426;10.868;2022-09-30T01:47:10;11.20;;;6.33;;
16832;SDS011;8533;48.426;10.868;2022-09-30T01:52:14;41.63;;;7.60;;
16832;SDS011;8533;48.426;10.868;2022-09-30T01:55:08;21.67;;;6.73;;
16832;SDS011;8533;48.426;10.868;2022-09-30T01:57:45;29.30;;;7.50;;
16832;SDS011;8533;48.426;10.868;2022-09-30T02:02:45;15.47;;;7.53;;
16832;SDS011;8533;48.426;10.868;2022-09-30T02:05:18;17.50;;;7.70;;
16832;SDS011;8533;48.426;10.868;2022-09-30T02:07:49;43.03;;;7.63;;
16832;SDS011;8533;48.426;10.868;2022-09-30T02:12:58;14.17;;;6.93;;
16832;SDS011;8533;48.426;10.868;2022-09-30T02:15:24;12.23;;;6.67;;
16832;SDS011;8533;48.426;10.868;2022-09-30T02:17:57;24.03;;;7.13;;
16832;SDS011;8533;48.426;10.868;2022-09-30T02:20:28;28.07;;;7.13;;
16832;SDS011;8533;48.426;10.868;2022-09-30T02:23:16;10.60;;;6.40;;
16832;SDS011;8533;48.426;10.868;2022-09-30T02:28:06;13.47;;;6.77;;
16832;SDS011;8533;48.426;10.868;2022-09-30T02:30:37;13.30;;;7.67;;
16832;SDS011;8533;48.426;10.868;2022-09-30T02:33:18;20.63;;;7.30;;
16832;SDS011;8533;48.426;10.868;2022-09-30T02:38:18;11.63;;;7.07;;
16832;SDS011;8533;48.426;10.868;2022-09-30T02:40:49;10.97;;;6.37;;
16832;SDS011;8533;48.426;10.868;2022-09-30T02:43:19;14.07;;;7.63;;
16832;SDS011;8533;48.426;10.868;2022-09-30T02:45:53;17.27;;;7.23;;
16832;SDS011;8533;48.426;10.868;2022-09-30T02:48:22;52.13;;;8.53;;
16832;SDS011;8533;48.426;10.868;2022-09-30T02:50:53;26.23;;;6.83;;
16832;SDS011;8533;48.426;10.868;2022-09-30T02:53:26;15.70;;;7.63;;
16832;SDS011;8533;48.426;10.868;2022-09-30T02:56:13;17.17;;;7.13;;
16832;SDS011;8533;48.426;10.868;2022-09-30T02:58:42;17.00;;;7.20;;
16832;SDS011;8533;48.426;10.868;2022-09-30T03:01:14;13.57;;;7.03;;
16832;SDS011;8533;48.426;10.868;2022-09-30T03:03:49;17.60;;;7.77;;
16832;SDS011;8533;48.426;10.868;2022-09-30T03:06:25;14.40;;;7.50;;
16832;SDS011;8533;48.426;10.868;2022-09-30T03:08:53;14.70;;;7.33;;
16832;SDS011;8533;48.426;10.868;2022-09-30T03:11:24;14.63;;;7.77;;
16832;SDS011;8533;48.426;10.868;2022-09-30T03:17:12;12.63;;;7.57;;
16832;SDS011;8533;48.426;10.868;2022-09-30T03:20:01;12.97;;;7.53;;
16832;SDS011;8533;48.426;10.868;2022-09-30T03:27:49;12.47;;;7.80;;
16832;SDS011;8533;48.426;10.868;2022-09-30T03:30:35;12.00;;;7.43;;
16832;SDS011;8533;48.426;10.868;2022-09-30T03:33:06;10.83;;;7.23;;
16832;SDS011;8533;48.426;10.868;2022-09-30T03:35:46;13.43;;;7.93;;
16832;SDS011;8533;48.426;10.868;2022-09-30T03:44:08;12.90;;;7.50;;
16832;SDS011;8533;48.426;10.868;2022-09-30T03:46:47;14.03;;;6.90;;
16832;SDS011;8533;48.426;10.868;2022-09-30T03:51:51;16.77;;;7.83;;
16832;SDS011;8533;48.426;10.868;2022-09-30T03:54:20;14.23;;;8.03;;
16832;SDS011;8533;48.426;10.868;2022-09-30T03:56:48;12.17;;;7.83;;
16832;SDS011;8533;48.426;10.868;2022-09-30T03:59:18;13.87;;;7.67;;
16832;SDS011;8533;48.426;10.868;2022-09-30T04:04:22;12.83;;;7.27;;
16832;SDS011;8533;48.426;10.868;2022-09-30T04:06:49;13.40;;;8.10;;
16832;SDS011;8533;48.426;10.868;2022-09-30T04:09:17;14.27;;;8.23;;
16832;SDS011;8533;48.426;10.868;2022-09-30T04:11:44;16.23;;;8.00;;
16832;SDS011;8533;48.426;10.868;2022-09-30T04:14:12;13.60;;;7.57;;
16832;SDS011;8533;48.426;10.868;2022-09-30T04:16:39;13.13;;;7.47;;
16832;SDS011;8533;48.426;10.868;2022-09-30T04:19:07;11.83;;;7.53;;
16832;SDS011;8533;48.426;10.868;2022-09-30T04:21:35;12.63;;;7.60;;
16832;SDS011;8533;48.426;10.868;2022-09-30T04:24:02;14.30;;;8.07;;
16832;SDS011;8533;48.426;10.868;2022-09-30T04:26:30;11.03;;;7.10;;
16832;SDS011;8533;48.426;10.868;2022-09-30T04:28:58;12.40;;;7.77;;
16832;SDS011;8533;48.426;10.868;2022-09-30T04:31:25;13.63;;;8.23;;
16832;SDS011;8533;48.426;10.868;2022-09-30T04:33:53;12.80;;;7.77;;
16832;SDS011;8533;48.426;10.868;2022-09-30T04:36:22;13.50;;;7.67;;
16832;SDS011;8533;48.426;10.868;2022-09-30T04:38:49;13.43;;;7.20;;
16832;SDS011;8533;48.426;10.868;2022-09-30T04:41:18;12.20;;;7.67;;
16832;SDS011;8533;48.426;10.868;2022-09-30T04:43:46;12.40;;;7.53;;
16832;SDS011;8533;48.426;10.868;2022-09-30T04:46:18;16.27;;;8.53;;
16832;SDS011;8533;48.426;10.868;2022-09-30T04:48:48;17.10;;;7.83;;
16832;SDS011;8533;48.426;10.868;2022-09-30T04:51:16;15.57;;;8.37;;
16832;SDS011;8533;48.426;10.868;2022-09-30T04:53:46;13.37;;;7.97;;
16832;SDS011;8533;48.426;10.868;2022-09-30T04:56:15;13.13;;;8.17;;
16832;SDS011;8533;48.426;10.868;2022-09-30T04:58:42;14.17;;;8.27;;
16832;SDS011;8533;48.426;10.868;2022-09-30T05:01:11;17.43;;;9.73;;
16832;SDS011;8533;48.426;10.868;2022-09-30T05:03:40;15.43;;;8.67;;
16832;SDS011;8533;48.426;10.868;2022-09-30T05:06:11;21.53;;;8.90;;
16832;SDS011;8533;48.426;10.868;2022-09-30T05:08:39;18.63;;;8.53;;
16832;SDS011;8533;48.426;10.868;2022-09-30T05:11:12;16.70;;;8.93;;
16832;SDS011;8533;48.426;10.868;2022-09-30T05:13:42;22.17;;;9.00;;
16832;SDS011;8533;48.426;10.868;2022-09-30T05:16:10;24.77;;;9.53;;
16832;SDS011;8533;48.426;10.868;2022-09-30T05:18:38;16.80;;;8.37;;
16832;SDS011;8533;48.426;10.868;2022-09-30T05:21:08;14.23;;;7.90;;
16832;SDS011;8533;48.426;10.868;2022-09-30T05:23:36;19.73;;;8.80;;
16832;SDS011;8533;48.426;10.868;2022-09-30T05:26:04;20.50;;;9.17;;
16832;SDS011;8533;48.426;10.868;2022-09-30T05:28:31;12.83;;;7.97;;
16832;SDS011;8533;48.426;10.868;2022-09-30T05:31:00;19.20;;;8.90;;
16832;SDS011;8533;48.426;10.868;2022-09-30T05:33:30;18.23;;;9.33;;
16832;SDS011;8533;48.426;10.868;2022-09-30T05:36:06;43.33;;;14.47;;
16832;SDS011;8533;48.426;10.868;2022-09-30T05:38:31;24.67;;;9.60;;
16832;SDS011;8533;48.426;10.868;2022-09-30T05:41:04;30.57;;;9.87;;
16832;SDS011;8533;48.426;10.868;2022-09-30T05:46:04;20.50;;;9.53;;
16832;SDS011;8533;48.426;10.868;2022-09-30T05:48:32;22.67;;;9.23;;
16832;SDS011;8533;48.426;10.868;2022-09-30T05:50:59;26.43;;;9.93;;
16832;SDS011;8533;48.426;10.868;2022-09-30T05:53:28;25.60;;;9.93;;
16832;SDS011;8533;48.426;10.868;2022-09-30T05:55:58;34.17;;;9.17;;
16832;SDS011;8533;48.426;10.868;2022-09-30T05:58:25;36.10;;;11.27;;
16832;SDS011;8533;48.426;10.868;2022-09-30T06:00:53;17.07;;;8.53;;
16832;SDS011;8533;48.426;10.868;2022-09-30T06:03:20;46.23;;;9.47;;
16832;SDS011;8533;48.426;10.868;2022-09-30T06:05:54;21.20;;;9.63;;
16832;SDS011;8533;48.426;10.868;2022-09-30T06:10:50;18.13;;;9.30;;
16832;SDS011;8533;48.426;10.868;2022-09-30T06:13:18;48.37;;;10.17;;
16832;SDS011;8533;48.426;10.868;2022-09-30T06:16:00;36.53;;;9.40;;
16832;SDS011;8533;48.426;10.868;2022-09-30T06:20:54;25.50;;;10.80;;
16832;SDS011;8533;48.426;10.868;2022-09-30T06:25:55;26.67;;;10.77;;
16832;SDS011;8533;48.426;10.868;2022-09-30T06:28:23;34.13;;;11.33;;
16832;SDS011;8533;48.426;10.868;2022-09-30T06:30:51;33.80;;;11.73;;
16832;SDS011;8533;48.426;10.868;2022-09-30T06:33:20;26.23;;;10.53;;
16832;SDS011;8533;48.426;10.868;2022-09-30T06:35:49;25.87;;;10.93;;
16832;SDS011;8533;48.426;10.868;2022-09-30T06:38:17;28.50;;;11.00;;
16832;SDS011;8533;48.426;10.868;2022-09-30T06:40:46;37.87;;;11.17;;
16832;SDS011;8533;48.426;10.868;2022-09-30T06:43:17;62.47;;;12.07;;
16832;SDS011;8533;48.426;10.868;2022-09-30T06:45:46;24.73;;;11.43;;
16832;SDS011;8533;48.426;10.868;2022-09-30T06:48:16;28.43;;;11.10;;
16832;SDS011;8533;48.426;10.868;2022-09-30T06:50:44;23.47;;;10.30;;
16832;SDS011;8533;48.426;10.868;2022-09-30T06:53:12;33.47;;;11.53;;
16832;SDS011;8533;48.426;10.868;2022-09-30T06:55:39;20.37;;;10.43;;
16832;SDS011;8533;48.426;10.868;2022-09-30T06:58:13;52.63;;;10.80;;
16832;SDS011;8533;48.426;10.868;2022-09-30T07:00:38;26.57;;;10.50;;
16832;SDS011;8533;48.426;10.868;2022-09-30T07:03:05;27.00;;;10.17;;
16832;SDS011;8533;48.426;10.868;2022-09-30T07:05:36;29.10;;;11.67;;
16832;SDS011;8533;48.426;10.868;2022-09-30T07:08:03;43.80;;;11.20;;
16832;SDS011;8533;48.426;10.868;2022-09-30T07:10:32;28.87;;;11.43;;
16832;SDS011;8533;48.426;10.868;2022-09-30T07:13:00;27.93;;;10.40;;
16832;SDS011;8533;48.426;10.868;2022-09-30T07:15:27;47.63;;;12.60;;
16832;SDS011;8533;48.426;10.868;2022-09-30T07:17:55;37.47;;;10.33;;
16832;SDS011;8533;48.426;10.868;2022-09-30T07:20:22;35.20;;;11.07;;
16832;SDS011;8533;48.426;10.868;2022-09-30T07:22:50;30.10;;;11.67;;
16832;SDS011;8533;48.426;10.868;2022-09-30T07:25:17;32.87;;;11.80;;
16832;SDS011;8533;48.426;10.868;2022-09-30T07:27:45;27.37;;;11.40;;
16832;SDS011;8533;48.426;10.868;2022-09-30T07:30:13;31.10;;;12.03;;
16832;SDS011;8533;48.426;10.868;2022-09-30T07:32:40;24.47;;;11.47;;
16832;SDS011;8533;48.426;10.868;2022-09-30T07:35:08;30.83;;;11.87;;
16832;SDS011;8533;48.426;10.868;2022-09-30T07:37:35;27.70;;;11.60;;
16832;SDS011;8533;48.426;10.868;2022-09-30T07:40:04;26.20;;;12.33;;
16832;SDS011;8533;48.426;10.868;2022-09-30T07:42:35;37.83;;;11.90;;
16832;SDS011;8533;48.426;10.868;2022-09-30T07:47:35;30.33;;;11.30;;
16832;SDS011;8533;48.426;10.868;2022-09-30T07:50:03;23.97;;;10.80;;
16832;SDS011;8533;48.426;10.868;2022-09-30T07:52:30;23.03;;;11.10;;
16832;SDS011;8533;48.426;10.868;2022-09-30T07:54:58;23.87;;;11.73;;
16832;SDS011;8533;48.426;10.868;2022-09-30T07:57:25;26.10;;;11.83;;
16832;SDS011;8533;48.426;10.868;2022-09-30T07:59:53;24.37;;;11.53;;
16832;SDS011;8533;48.426;10.868;2022-09-30T08:02:20;24.83;;;11.30;;
16832;SDS011;8533;48.426;10.868;2022-09-30T08:04:49;30.37;;;12.43;;
16832;SDS011;8533;48.426;10.868;2022-09-30T08:07:17;32.07;;;13.60;;
16832;SDS011;8533;48.426;10.868;2022-09-30T08:09:45;29.50;;;12.50;;
16832;SDS011;8533;48.426;10.868;2022-09-30T08:12:12;29.80;;;13.27;;
16832;SDS011;8533;48.426;10.868;2022-09-30T08:14:40;32.47;;;13.67;;
16832;SDS011;8533;48.426;10.868;2022-09-30T08:17:09;31.93;;;13.10;;
16832;SDS011;8533;48.426;10.868;2022-09-30T08:19:36;29.93;;;13.13;;
16832;SDS011;8533;48.426;10.868;2022-09-30T08:22:05;32.33;;;13.33;;
16832;SDS011;8533;48.426;10.868;2022-09-30T08:24:34;31.20;;;12.43;;
16832;SDS011;8533;48.426;10.868;2022-09-30T08:27:02;28.27;;;11.97;;
16832;SDS011;8533;48.426;10.868;2022-09-30T08:29:29;26.00;;;11.67;;
16832;SDS011;8533;48.426;10.868;2022-09-30T08:31:57;30.87;;;12.73;;
16832;SDS011;8533;48.426;10.868;2022-09-30T08:34:24;28.77;;;11.87;;
16832;SDS011;8533;48.426;10.868;2022-09-30T08:36:52;30.13;;;12.67;;
16832;SDS011;8533;48.426;10.868;2022-09-30T08:39:19;25.30;;;12.10;;
16832;SDS011;8533;48.426;10.868;2022-09-30T08:47:09;24.57;;;11.37;;
16832;SDS011;8533;48.426;10.868;2022-09-30T08:52:16;22.97;;;10.73;;
16832;SDS011;8533;48.426;10.868;2022-09-30T08:57:13;24.87;;;11.80;;
16832;SDS011;8533;48.426;10.868;2022-09-30T08:59:45;20.13;;;10.20;;
16832;SDS011;8533;48.426;10.868;2022-09-30T09:02:19;25.00;;;11.30;;
16832;SDS011;8533;48.426;10.868;2022-09-30T09:04:48;23.03;;;11.27;;
16832;SDS011;8533;48.426;10.868;2022-09-30T09:07:26;23.03;;;11.10;;
16832;SDS011;8533;48.426;10.868;2022-09-30T09:10:06;20.10;;;10.60;;
16832;SDS011;8533;48.426;10.868;2022-09-30T09:23:26;21.33;;;10.60;;
16832;SDS011;8533;48.426;10.868;2022-09-30T09:25:57;18.63;;;9.33;;
16832;SDS011;8533;48.426;10.868;2022-09-30T09:33:34;14.57;;;8.47;;
16832;SDS011;8533;48.426;10.868;2022-09-30T09:36:13;14.37;;;8.40;;
16832;SDS011;8533;48.426;10.868;2022-09-30T09:41:32;18.00;;;8.70;;
16832;SDS011;8533;48.426;10.868;2022-09-30T09:47:03;17.20;;;8.13;;
16832;SDS011;8533;48.426;10.868;2022-09-30T09:54:52;12.47;;;7.67;;
16832;SDS011;8533;48.426;10.868;2022-09-30T09:57:25;14.23;;;8.17;;
16832;SDS011;8533;48.426;10.868;2022-09-30T10:05:33;12.50;;;7.70;;
16832;SDS011;8533;48.426;10.868;2022-09-30T10:10:46;15.97;;;9.27;;
16832;SDS011;8533;48.426;10.868;2022-09-30T10:15:54;17.00;;;8.70;;
16832;SDS011;8533;48.426;10.868;2022-09-30T10:21:07;14.00;;;8.17;;
16832;SDS011;8533;48.426;10.868;2022-09-30T10:23:43;12.50;;;7.80;;
16832;SDS011;8533;48.426;10.868;2022-09-30T10:31:27;12.47;;;7.83;;
16832;SDS011;8533;48.426;10.868;2022-09-30T10:36:41;11.90;;;7.50;;
16832;SDS011;8533;48.426;10.868;2022-09-30T10:39:18;13.10;;;7.90;;
16832;SDS011;8533;48.426;10.868;2022-09-30T10:44:20;10.97;;;7.57;;
16832;SDS011;8533;48.426;10.868;2022-09-30T10:46:49;11.67;;;7.30;;
16832;SDS011;8533;48.426;10.868;2022-09-30T10:51:51;9.63;;;7.03;;
16832;SDS011;8533;48.426;10.868;2022-09-30T10:54:35;9.27;;;6.43;;
16832;SDS011;8533;48.426;10.868;2022-09-30T10:57:04;12.90;;;7.45;;
16832;SDS011;8533;48.426;10.868;2022-09-30T10:59:35;12.43;;;7.77;;
16832;SDS011;8533;48.426;10.868;2022-09-30T11:02:21;12.33;;;7.77;;
16832;SDS011;8533;48.426;10.868;2022-09-30T11:05:01;13.40;;;7.00;;
16832;SDS011;8533;48.426;10.868;2022-09-30T11:07:26;11.50;;;7.83;;
16832;SDS011;8533;48.426;10.868;2022-09-30T11:12:41;13.07;;;7.93;;
16832;SDS011;8533;48.426;10.868;2022-09-30T11:17:56;13.27;;;8.33;;
16832;SDS011;8533;48.426;10.868;2022-09-30T11:22:58;15.93;;;9.43;;
16832;SDS011;8533;48.426;10.868;2022-09-30T11:28:22;16.30;;;9.80;;
16832;SDS011;8533;48.426;10.868;2022-09-30T11:36:21;11.83;;;8.40;;
16832;SDS011;8533;48.426;10.868;2022-09-30T11:41:46;16.40;;;7.50;;
16832;SDS011;8533;48.426;10.868;2022-09-30T11:44:34;11.00;;;7.30;;
16832;SDS011;8533;48.426;10.868;2022-09-30T11:53:02;15.70;;;8.07;;
16832;SDS011;8533;48.426;10.868;2022-09-30T12:00:41;10.57;;;7.20;;
16832;SDS011;8533;48.426;10.868;2022-09-30T12:03:12;10.70;;;7.17;;
16832;SDS011;8533;48.426;10.868;2022-09-30T12:05:47;12.20;;;8.03;;
16832;SDS011;8533;48.426;10.868;2022-09-30T12:08:21;10.93;;;7.27;;
16832;SDS011;8533;48.426;10.868;2022-09-30T12:10:50;10.13;;;7.13;;
16832;SDS011;8533;48.426;10.868;2022-09-30T12:13:39;9.93;;;7.80;;
16832;SDS011;8533;48.426;10.868;2022-09-30T12:18:49;9.63;;;6.97;;
16832;SDS011;8533;48.426;10.868;2022-09-30T12:24:20;9.80;;;6.60;;
16832;SDS011;8533;48.426;10.868;2022-09-30T12:26:51;10.53;;;6.73;;
16832;SDS011;8533;48.426;10.868;2022-09-30T12:29:29;8.17;;;5.87;;
16832;SDS011;8533;48.426;10.868;2022-09-30T12:32:21;10.00;;;6.73;;
16832;SDS011;8533;48.426;10.868;2022-09-30T12:45:53;7.50;;;5.40;;
16832;SDS011;8533;48.426;10.868;2022-09-30T12:56:29;7.30;;;5.20;;
16832;SDS011;8533;48.426;10.868;2022-09-30T12:58:59;7.60;;;5.10;;
16832;SDS011;8533;48.426;10.868;2022-09-30T13:01:29;8.43;;;5.40;;
16832;SDS011;8533;48.426;10.868;2022-09-30T13:17:00;7.00;;;4.37;;
16832;SDS011;8533;48.426;10.868;2022-09-30T13:19:35;6.33;;;4.50;;
16832;SDS011;8533;48.426;10.868;2022-09-30T13:46:34;5.57;;;4.07;;
16832;SDS011;8533;48.426;10.868;2022-09-30T13:49:51;7.55;;;5.85;;
16832;SDS011;8533;48.426;10.868;2022-09-30T13:54:58;7.87;;;5.43;;
16832;SDS011;8533;48.426;10.868;2022-09-30T13:57:04;9.47;;;6.27;;
16832;SDS011;8533;48.426;10.868;2022-09-30T14:07:48;7.77;;;6.30;;
16832;SDS011;8533;48.426;10.868;2022-09-30T14:13:30;8.00;;;5.77;;
16832;SDS011;8533;48.426;10.868;2022-09-30T14:31:22;6.90;;;5.37;;
16832;SDS011;8533;48.426;10.868;2022-09-30T14:33:49;6.60;;;5.03;;
16832;SDS011;8533;48.426;10.868;2022-09-30T14:36:18;11.53;;;5.93;;
16832;SDS011;8533;48.426;10.868;2022-09-30T14:38:56;8.07;;;5.47;;
16832;SDS011;8533;48.426;10.868;2022-09-30T14:43:54;6.97;;;5.50;;
16832;SDS011;8533;48.426;10.868;2022-09-30T14:46:27;7.83;;;5.70;;
16832;SDS011;8533;48.426;10.868;2022-09-30T14:48:56;7.70;;;5.57;;
16832;SDS011;8533;48.426;10.868;2022-09-30T14:51:26;7.07;;;5.53;;
16832;SDS011;8533;48.426;10.868;2022-09-30T14:53:57;8.23;;;4.90;;
16832;SDS011;8533;48.426;10.868;2022-09-30T14:56:35;7.33;;;5.13;;
16832;SDS011;8533;48.426;10.868;2022-09-30T14:59:07;6.50;;;5.13;;
16832;SDS011;8533;48.426;10.868;2022-09-30T15:01:48;7.37;;;5.07;;
16832;SDS011;8533;48.426;10.868;2022-09-30T15:04:30;8.77;;;5.30;;
16832;SDS011;8533;48.426;10.868;2022-09-30T15:07:03;7.70;;;5.60;;
16832;SDS011;8533;48.426;10.868;2022-09-30T15:09:33;6.77;;;5.07;;
16832;SDS011;8533;48.426;10.868;2022-09-30T15:12:10;6.70;;;5.67;;
16832;SDS011;8533;48.426;10.868;2022-09-30T15:17:24;6.63;;;5.23;;
16832;SDS011;8533;48.426;10.868;2022-09-30T15:22:25;6.80;;;5.17;;
16832;SDS011;8533;48.426;10.868;2022-09-30T15:24:55;6.13;;;4.97;;
16832;SDS011;8533;48.426;10.868;2022-09-30T15:27:32;6.63;;;5.30;;
16832;SDS011;8533;48.426;10.868;2022-09-30T15:29:58;6.33;;;5.10;;
16832;SDS011;8533;48.426;10.868;2022-09-30T15:32:28;10.17;;;7.37;;
16832;SDS011;8533;48.426;10.868;2022-09-30T15:35:04;7.33;;;5.43;;
16832;SDS011;8533;48.426;10.868;2022-09-30T15:40:14;7.73;;;5.30;;
16832;SDS011;8533;48.426;10.868;2022-09-30T15:43:02;7.80;;;5.07;;
16832;SDS011;8533;48.426;10.868;2022-09-30T15:50:42;6.70;;;5.03;;
16832;SDS011;8533;48.426;10.868;2022-09-30T15:55:49;5.70;;;4.53;;
16832;SDS011;8533;48.426;10.868;2022-09-30T15:58:35;5.23;;;4.13;;
16832;SDS011;8533;48.426;10.868;2022-09-30T16:08:54;7.43;;;4.53;;
16832;SDS011;8533;48.426;10.868;2022-09-30T16:11:24;7.83;;;4.87;;
16832;SDS011;8533;48.426;10.868;2022-09-30T16:16:32;7.33;;;5.00;;
16832;SDS011;8533;48.426;10.868;2022-09-30T16:19:01;7.00;;;5.00;;
16832;SDS011;8533;48.426;10.868;2022-09-30T16:21:35;9.07;;;5.00;;
16832;SDS011;8533;48.426;10.868;2022-09-30T16:27:15;7.70;;;5.35;;
16832;SDS011;8533;48.426;10.868;2022-09-30T16:29:27;10.57;;;5.33;;
16832;SDS011;8533;48.426;10.868;2022-09-30T16:31:55;8.50;;;5.60;;
16832;SDS011;8533;48.426;10.868;2022-09-30T16:34:26;8.97;;;5.23;;
16832;SDS011;8533;48.426;10.868;2022-09-30T16:37:16;10.07;;;5.70;;
16832;SDS011;8533;48.426;10.868;2022-09-30T16:39:41;9.43;;;5.87;;
16832;SDS011;8533;48.426;10.868;2022-09-30T16:42:12;7.80;;;5.60;;
16832;SDS011;8533;48.426;10.868;2022-09-30T16:44:40;13.60;;;6.67;;
16832;SDS011;8533;48.426;10.868;2022-09-30T16:47:17;11.43;;;6.33;;
16832;SDS011;8533;48.426;10.868;2022-09-30T16:52:12;12.17;;;7.23;;
16832;SDS011;8533;48.426;10.868;2022-09-30T16:54:40;11.60;;;6.60;;
16832;SDS011;8533;48.426;10.868;2022-09-30T16:57:08;10.53;;;5.73;;
16832;SDS011;8533;48.426;10.868;2022-09-30T16:59:40;12.43;;;6.10;;
16832;SDS011;8533;48.426;10.868;2022-09-30T17:02:10;12.17;;;7.33;;
16832;SDS011;8533;48.426;10.868;2022-09-30T17:04:38;14.63;;;8.13;;
16832;SDS011;8533;48.426;10.868;2022-09-30T17:07:08;15.43;;;7.97;;
16832;SDS011;8533;48.426;10.868;2022-09-30T17:09:36;15.77;;;8.63;;
16832;SDS011;8533;48.426;10.868;2022-09-30T17:12:04;12.47;;;8.23;;
16832;SDS011;8533;48.426;10.868;2022-09-30T17:14:31;11.97;;;7.80;;
16832;SDS011;8533;48.426;10.868;2022-09-30T17:16:59;14.57;;;8.20;;
16832;SDS011;8533;48.426;10.868;2022-09-30T17:19:27;13.37;;;8.50;;
16832;SDS011;8533;48.426;10.868;2022-09-30T17:21:56;14.80;;;8.63;;
16832;SDS011;8533;48.426;10.868;2022-09-30T17:24:23;18.40;;;9.80;;
16832;SDS011;8533;48.426;10.868;2022-09-30T17:26:51;17.03;;;9.87;;
16832;SDS011;8533;48.426;10.868;2022-09-30T17:29:19;14.97;;;8.90;;
16832;SDS011;8533;48.426;10.868;2022-09-30T17:31:47;18.10;;;9.87;;
16832;SDS011;8533;48.426;10.868;2022-09-30T17:34:14;17.67;;;9.50;;
16832;SDS011;8533;48.426;10.868;2022-09-30T17:36:42;16.03;;;9.73;;
16832;SDS011;8533;48.426;10.868;2022-09-30T17:39:09;16.97;;;9.20;;
16832;SDS011;8533;48.426;10.868;2022-09-30T17:41:37;18.37;;;9.80;;
16832;SDS011;8533;48.426;10.868;2022-09-30T17:44:22;18.25;;;9.60;;
16832;SDS011;8533;48.426;10.868;2022-09-30T17:46:50;15.97;;;8.57;;
16832;SDS011;8533;48.426;10.868;2022-09-30T17:49:19;14.70;;;9.40;;
16832;SDS011;8533;48.426;10.868;2022-09-30T17:51:46;16.97;;;9.77;;
16832;SDS011;8533;48.426;10.868;2022-09-30T17:54:14;17.17;;;9.73;;
16832;SDS011;8533;48.426;10.868;2022-09-30T17:56:41;18.30;;;9.90;;
16832;SDS011;8533;48.426;10.868;2022-09-30T17:59:09;16.87;;;9.30;;
16832;SDS011;8533;48.426;10.868;2022-09-30T18:01:36;19.53;;;10.83;;
16832;SDS011;8533;48.426;10.868;2022-09-30T18:04:05;18.93;;;10.77;;
16832;SDS011;8533;48.426;10.868;2022-09-30T18:06:32;21.47;;;10.90;;
16832;SDS011;8533;48.426;10.868;2022-09-30T18:09:00;19.07;;;11.13;;
16832;SDS011;8533;48.426;10.868;2022-09-30T18:11:27;18.43;;;10.97;;
16832;SDS011;8533;48.426;10.868;2022-09-30T18:13:56;21.30;;;11.67;;
16832;SDS011;8533;48.426;10.868;2022-09-30T18:16:27;21.00;;;10.90;;
16832;SDS011;8533;48.426;10.868;2022-09-30T18:18:57;23.07;;;12.77;;
16832;SDS011;8533;48.426;10.868;2022-09-30T18:21:29;24.27;;;13.07;;
16832;SDS011;8533;48.426;10.868;2022-09-30T18:23:58;21.90;;;12.80;;
16832;SDS011;8533;48.426;10.868;2022-09-30T18:26:27;21.13;;;12.07;;
16832;SDS011;8533;48.426;10.868;2022-09-30T18:28:56;22.20;;;11.30;;
16832;SDS011;8533;48.426;10.868;2022-09-30T18:31:24;21.33;;;11.73;;
16832;SDS011;8533;48.426;10.868;2022-09-30T18:33:56;19.83;;;10.30;;
16832;SDS011;8533;48.426;10.868;2022-09-30T18:36:24;19.57;;;10.23;;
16832;SDS011;8533;48.426;10.868;2022-09-30T18:38:58;17.17;;;9.20;;
16832;SDS011;8533;48.426;10.868;2022-09-30T18:41:27;16.20;;;8.73;;
16832;SDS011;8533;48.426;10.868;2022-09-30T18:43:56;12.20;;;7.50;;
16832;SDS011;8533;48.426;10.868;2022-09-30T18:46:27;13.90;;;8.30;;
16832;SDS011;8533;48.426;10.868;2022-09-30T18:48:56;16.53;;;8.93;;
16832;SDS011;8533;48.426;10.868;2022-09-30T18:51:23;13.67;;;8.17;;
16832;SDS011;8533;48.426;10.868;2022-09-30T18:53:57;14.43;;;8.07;;
16832;SDS011;8533;48.426;10.868;2022-09-30T18:58:57;11.70;;;7.30;;
16832;SDS011;8533;48.426;10.868;2022-09-30T19:01:27;11.73;;;6.67;;
16832;SDS011;8533;48.426;10.868;2022-09-30T19:03:57;11.33;;;5.90;;
16832;SDS011;8533;48.426;10.868;2022-09-30T19:06:26;14.40;;;7.20;;
16832;SDS011;8533;48.426;10.868;2022-09-30T19:08:53;12.30;;;6.73;;
16832;SDS011;8533;48.426;10.868;2022-09-30T19:11:21;11.63;;;7.10;;
16832;SDS011;8533;48.426;10.868;2022-09-30T19:13:50;11.83;;;7.07;;
16832;SDS011;8533;48.426;10.868;2022-09-30T19:16:19;10.03;;;6.47;;
16832;SDS011;8533;48.426;10.868;2022-09-30T19:18:47;10.33;;;6.67;;
16832;SDS011;8533;48.426;10.868;2022-09-30T19:21:15;12.10;;;6.47;;
16832;SDS011;8533;48.426;10.868;2022-09-30T19:23:45;10.40;;;6.47;;
16832;SDS011;8533;48.426;10.868;2022-09-30T19:26:12;10.07;;;6.90;;
16832;SDS011;8533;48.426;10.868;2022-09-30T19:28:40;14.80;;;7.00;;
16832;SDS011;8533;48.426;10.868;2022-09-30T19:31:09;11.90;;;6.33;;
16832;SDS011;8533;48.426;10.868;2022-09-30T19:33:39;11.53;;;7.27;;
16832;SDS011;8533;48.426;10.868;2022-09-30T19:36:08;10.70;;;6.77;;
16832;SDS011;8533;48.426;10.868;2022-09-30T19:38:38;12.93;;;7.13;;
16832;SDS011;8533;48.426;10.868;2022-09-30T19:41:07;11.47;;;6.83;;
16832;SDS011;8533;48.426;10.868;2022-09-30T19:43:35;13.33;;;7.17;;